Terminal Aerodrome Forecast
Issued by NWS

Home | Current Version | Previous Version | Text Only | Print | Product List | Glossary On
Versions: 1 2 3 4 5 6 7 8 9 10 11 12 13 14 15 16 17 18 19 20 21 22 23 24 25 26 27 28 29 30 31 32 33 34 35 36
000
FTUS45 KREV 171124
TAFTVL
TAF
KTVL 171124Z 1712/1812 VRB03KT P6SM VCFG SKC
     FM171900 19006KT P6SM SCT150
     FM180200 19004KT P6SM SCT080 BKN150
     FM180900 19006KT P6SM SCT070 OVC150 WS020/24035KT=

USA.gov is the U.S. government's official web portal to all federal, state and local government web resources and services.